Time;durP1;ratioP1;P1;durP2;ratioP2;P2;SDS_P1;SDS_P2;PMS_P1;PMS_P2;Temp;Humidity;BMP_temperature;BMP_pressure;BME280_temperature;BME280_humidity;BME280_pressure;Samples;Min_cycle;Max_cycle;Signal;HPM_P1;HPM_P2
2023/12/25 00:01:05;;;;;;;1.70;0.53;;;11.20;99.90;;;;;;5033438;28;20061;-51
2023/12/25 00:03:31;;;;;;;1.20;0.50;;;11.20;99.90;;;;;;5034167;28;20057;-55
2023/12/25 00:05:57;;;;;;;1.13;0.43;;;11.20;99.90;;;;;;5034340;28;20032;-55
2023/12/25 00:08:22;;;;;;;3.23;0.77;;;11.20;99.90;;;;;;5033961;28;20395;-54
2023/12/25 00:10:48;;;;;;;0.87;0.50;;;11.20;99.90;;;;;;5034049;28;20029;-55
2023/12/25 00:13:13;;;;;;;0.53;0.40;;;11.20;99.90;;;;;;5034107;28;20033;-51
2023/12/25 00:15:39;;;;;;;0.90;0.50;;;11.20;99.90;;;;;;5034074;28;20033;-54
2023/12/25 00:18:05;;;;;;;5.00;0.80;;;11.20;99.90;;;;;;5033891;28;20030;-55
2023/12/25 00:20:30;;;;;;;1.00;0.60;;;11.30;99.90;;;;;;5033946;28;20390;-54
2023/12/25 00:22:56;;;;;;;3.57;0.70;;;11.30;99.90;;;;;;5033842;28;20034;-55
2023/12/25 00:25:22;;;;;;;2.60;0.70;;;11.30;99.90;;;;;;5033820;28;20101;-53
2023/12/25 00:27:47;;;;;;;3.65;0.80;;;11.30;99.90;;;;;;5033646;28;20041;-56
2023/12/25 00:30:15;;;;;;;2.17;0.80;;;11.30;99.90;;;;;;5015938;28;20029;-56
2023/12/25 00:32:40;;;;;;;3.57;0.90;;;11.30;99.90;;;;;;5016128;28;20180;-54
2023/12/25 00:35:06;;;;;;;2.47;0.90;;;11.30;99.90;;;;;;5015974;28;20510;-53
2023/12/25 00:37:33;;;;;;;1.30;0.67;;;11.40;99.90;;;;;;5033613;28;20036;-54
2023/12/25 00:39:59;;;;;;;9.63;3.93;;;11.40;99.90;;;;;;5015718;28;20390;-55
2023/12/25 00:42:24;;;;;;;9.10;4.27;;;11.40;99.90;;;;;;5015640;28;20040;-53
2023/12/25 00:44:50;;;;;;;3.10;1.40;;;11.40;99.90;;;;;;5033458;28;20032;-55
2023/12/25 00:47:15;;;;;;;2.10;1.07;;;11.50;99.90;;;;;;5015768;28;20479;-54
2023/12/25 00:49:41;;;;;;;2.43;0.90;;;11.50;99.90;;;;;;5015488;28;20029;-53
2023/12/25 00:52:07;;;;;;;4.33;1.50;;;11.50;99.90;;;;;;5033299;28;20120;-52
2023/12/25 00:54:35;;;;;;;3.03;1.10;;;11.50;99.90;;;;;;5015585;28;20037;-53
2023/12/25 00:57:01;;;;;;;3.13;0.80;;;11.50;99.90;;;;;;5015510;28;20505;-54
2023/12/25 00:59:27;;;;;;;1.87;0.63;;;11.50;99.90;;;;;;5033017;28;20034;-56
2023/12/25 01:01:53;;;;;;;2.50;0.70;;;11.50;99.90;;;;;;5015511;28;20549;-52
2023/12/25 01:04:19;;;;;;;2.47;1.40;;;11.50;99.90;;;;;;5015363;28;20033;-56
2023/12/25 01:06:45;;;;;;;1.67;0.60;;;11.50;99.90;;;;;;5033137;28;20018;-53
2023/12/25 01:09:11;;;;;;;2.77;0.93;;;11.60;99.90;;;;;;5032742;28;20025;-55
2023/12/25 01:11:41;;;;;;;3.63;0.57;;;11.60;99.90;;;;;;5015112;28;20022;-55
2023/12/25 01:14:08;;;;;;;1.77;0.77;;;11.60;99.90;;;;;;5033004;28;20044;-54
2023/12/25 01:16:34;;;;;;;2.50;0.60;;;11.60;99.90;;;;;;5032901;28;20052;-53
2023/12/25 01:18:59;;;;;;;0.85;0.50;;;11.60;99.90;;;;;;5014864;28;20029;-55
2023/12/25 01:21:25;;;;;;;2.00;0.60;;;11.60;99.90;;;;;;5015021;28;20415;-56
2023/12/25 01:23:50;;;;;;;1.20;0.70;;;11.60;99.90;;;;;;5032666;28;20029;-53
2023/12/25 01:26:18;;;;;;;2.15;0.57;;;11.60;99.90;;;;;;5032727;28;20552;-55
2023/12/25 01:28:43;;;;;;;1.90;0.60;;;11.60;99.90;;;;;;5014713;28;20044;-54
2023/12/25 01:31:09;;;;;;;0.80;0.60;;;11.60;99.90;;;;;;5014911;28;20117;-56
2023/12/25 01:33:35;;;;;;;1.15;0.50;;;11.60;99.90;;;;;;5014913;28;20506;-54
2023/12/25 01:36:00;;;;;;;6.63;0.85;;;11.70;99.90;;;;;;5032512;28;20390;-54
2023/12/25 01:38:26;;;;;;;1.07;0.60;;;11.70;99.90;;;;;;5014581;28;20033;-55
2023/12/25 01:40:51;;;;;;;4.80;0.80;;;11.60;99.90;;;;;;5014716;28;20040;-55
2023/12/25 01:43:17;;;;;;;1.38;0.80;;;11.60;99.90;;;;;;5014639;28;20042;-54
2023/12/25 01:45:43;;;;;;;2.28;0.90;;;11.60;99.90;;;;;;5014747;28;20065;-53
2023/12/25 01:48:09;;;;;;;1.60;0.50;;;11.60;99.90;;;;;;5032221;28;20107;-56
2023/12/25 01:50:35;;;;;;;0.90;0.60;;;11.70;99.90;;;;;;5014826;28;20438;-56
2023/12/25 01:53:01;;;;;;;3.37;0.60;;;11.70;99.90;;;;;;5032207;28;20060;-56
2023/12/25 01:55:28;;;;;;;3.63;0.80;;;11.60;99.90;;;;;;5014539;28;20061;-55
2023/12/25 01:57:54;;;;;;;1.80;0.93;;;11.60;99.90;;;;;;5014319;28;20459;-55
2023/12/25 02:00:19;;;;;;;1.60;0.77;;;11.60;99.90;;;;;;5014406;28;20067;-52
2023/12/25 02:02:45;;;;;;;2.53;0.50;;;11.60;99.90;;;;;;5014544;28;20106;-54
2023/12/25 02:05:11;;;;;;;1.30;0.80;;;11.60;99.90;;;;;;5014348;28;20390;-54
2023/12/25 02:07:42;;;;;;;1.38;0.73;;;11.60;99.90;;;;;;5014132;28;20032;-53
2023/12/25 02:10:08;;;;;;;2.22;0.98;;;11.50;99.90;;;;;;5014273;28;20051;-51
2023/12/25 02:12:38;;;;;;;1.73;0.80;;;11.50;99.90;;;;;;5014176;28;20475;-55
2023/12/25 02:15:04;;;;;;;1.50;0.90;;;11.50;99.90;;;;;;5032112;28;20108;-52
2023/12/25 02:17:31;;;;;;;2.00;0.80;;;11.40;99.90;;;;;;5031795;28;20040;-52
2023/12/25 02:19:58;;;;;;;2.27;1.03;;;11.40;99.90;;;;;;5014031;28;20410;-57
2023/12/25 02:22:24;;;;;;;1.93;0.77;;;11.40;99.90;;;;;;5031538;28;20030;-55
2023/12/25 02:25:02;;;;;;;1.60;1.00;;;11.40;99.90;;;;;;5013875;28;20127;-52
2023/12/25 02:27:29;;;;;;;2.67;0.70;;;11.40;99.90;;;;;;5013974;28;20035;-56
2023/12/25 02:29:55;;;;;;;4.15;0.80;;;11.40;99.90;;;;;;5031690;28;20080;-54
2023/12/25 02:32:21;;;;;;;1.13;0.70;;;11.50;99.90;;;;;;5014092;28;20422;-53
2023/12/25 02:34:48;;;;;;;1.25;0.80;;;11.50;99.90;;;;;;5031663;28;20105;-53
2023/12/25 02:37:14;;;;;;;1.60;0.90;;;11.50;99.90;;;;;;5014038;28;20120;-54
2023/12/25 02:39:40;;;;;;;0.57;0.50;;;11.50;99.90;;;;;;5031465;28;20038;-57
2023/12/25 02:42:05;;;;;;;1.17;0.50;;;11.50;99.90;;;;;;5031155;23;21445;-55
2023/12/25 02:44:31;;;;;;;1.77;0.57;;;11.50;99.90;;;;;;5033795;28;20087;-55
2023/12/25 02:46:56;;;;;;;0.90;0.60;;;11.60;99.90;;;;;;5051722;28;20075;-57
2023/12/25 02:49:22;;;;;;;1.27;0.68;;;11.60;99.90;;;;;;5033545;28;20449;-55
2023/12/25 02:51:48;;;;;;;3.28;0.93;;;11.60;99.90;;;;;;5033685;28;20036;-56
2023/12/25 02:54:14;;;;;;;1.63;0.60;;;11.50;99.90;;;;;;5051527;28;20485;-55
2023/12/25 02:56:40;;;;;;;1.13;0.75;;;11.60;99.90;;;;;;5033673;28;20033;-56
2023/12/25 02:59:06;;;;;;;2.03;0.57;;;11.60;99.90;;;;;;5033372;28;20088;-55
2023/12/25 03:01:31;;;;;;;3.08;1.00;;;11.60;99.90;;;;;;5033488;28;20482;-56
2023/12/25 03:03:57;;;;;;;1.00;0.70;;;11.60;99.90;;;;;;5051100;28;20493;-56
2023/12/25 03:06:23;;;;;;;1.83;0.70;;;11.60;99.90;;;;;;5051334;28;20025;-52
2023/12/25 03:08:49;;;;;;;1.67;0.70;;;11.60;99.90;;;;;;5033246;28;20558;-56
2023/12/25 03:11:14;;;;;;;1.53;0.90;;;11.60;99.90;;;;;;5033457;28;20036;-55
2023/12/25 03:13:40;;;;;;;2.30;0.60;;;11.60;99.90;;;;;;5051609;28;20048;-56
2023/12/25 03:16:06;;;;;;;1.20;0.80;;;11.60;99.90;;;;;;5051664;28;20028;-55
2023/12/25 03:18:33;;;;;;;1.60;0.80;;;11.60;99.90;;;;;;5051145;28;20204;-55
2023/12/25 03:20:58;;;;;;;2.33;0.70;;;11.60;99.90;;;;;;5033621;28;20040;-56
2023/12/25 03:23:24;;;;;;;0.80;0.60;;;11.60;99.90;;;;;;5051279;28;20482;-57
2023/12/25 03:25:50;;;;;;;1.17;0.63;;;11.70;99.90;;;;;;5051318;28;20032;-57
2023/12/25 03:28:15;;;;;;;1.53;0.70;;;11.70;99.90;;;;;;5051070;28;20018;-57
2023/12/25 03:30:41;;;;;;;0.50;0.43;;;11.70;99.90;;;;;;5033127;28;20029;-57
2023/12/25 03:33:09;;;;;;;1.20;0.50;;;11.70;99.90;;;;;;5051145;28;20049;-56
2023/12/25 03:35:35;;;;;;;0.60;0.50;;;11.70;99.90;;;;;;5052632;28;20025;-56
2023/12/25 03:38:01;;;;;;;1.35;0.63;;;11.80;99.90;;;;;;5020332;28;20067;-57
2023/12/25 03:40:27;;;;;;;2.30;0.70;;;11.80;99.90;;;;;;5054638;28;20496;-55
2023/12/25 03:42:54;;;;;;;1.40;0.52;;;11.80;99.90;;;;;;5054517;28;20033;-56
2023/12/25 03:45:20;;;;;;;0.60;0.40;;;11.80;99.90;;;;;;5054589;28;20037;-57
2023/12/25 03:47:47;;;;;;;1.02;0.60;;;11.80;99.90;;;;;;5054335;28;20503;-56
2023/12/25 03:50:13;;;;;;;0.60;0.50;;;11.90;99.90;;;;;;5054431;28;20025;-55
2023/12/25 03:52:38;;;;;;;0.90;0.50;;;11.90;99.90;;;;;;5054369;28;20481;-55
2023/12/25 03:55:04;;;;;;;1.20;0.50;;;11.90;99.90;;;;;;5037105;28;20040;-54
2023/12/25 03:57:30;;;;;;;1.67;0.73;;;11.90;99.90;;;;;;5054337;28;20033;-54
2023/12/25 03:59:55;;;;;;;1.70;0.55;;;11.90;99.90;;;;;;5036346;28;20087;-55
2023/12/25 04:02:21;;;;;;;0.90;0.47;;;12.00;99.90;;;;;;5036216;28;20204;-53
2023/12/25 04:04:47;;;;;;;0.70;0.40;;;12.00;99.90;;;;;;5036213;28;20040;-55
2023/12/25 04:07:14;;;;;;;0.50;0.50;;;12.00;99.90;;;;;;5036212;28;20021;-55
2023/12/25 04:09:41;;;;;;;1.42;0.70;;;12.00;99.90;;;;;;5035981;28;20122;-51
2023/12/25 04:12:07;;;;;;;0.65;0.40;;;12.00;99.90;;;;;;5036252;28;20025;-54
2023/12/25 04:14:37;;;;;;;1.02;0.50;;;12.00;99.90;;;;;;5036172;28;20052;-55
2023/12/25 04:17:03;;;;;;;1.08;0.45;;;12.00;99.90;;;;;;5035997;28;20123;-56
2023/12/25 04:19:29;;;;;;;2.47;0.60;;;12.00;99.90;;;;;;5035845;28;20458;-56
2023/12/25 04:21:54;;;;;;;2.25;0.50;;;12.00;99.90;;;;;;5036047;28;20119;-56
2023/12/25 04:24:20;;;;;;;1.48;0.40;;;12.00;99.90;;;;;;5035978;28;20037;-56
2023/12/25 04:26:46;;;;;;;1.50;0.80;;;12.00;99.90;;;;;;5035912;28;20024;-55
2023/12/25 04:29:12;;;;;;;0.80;0.60;;;12.00;99.90;;;;;;5053496;28;20032;-56
2023/12/25 04:31:37;;;;;;;1.92;0.52;;;12.00;99.90;;;;;;5053594;28;20025;-55
2023/12/25 04:34:03;;;;;;;0.98;0.50;;;12.00;99.90;;;;;;5035796;28;20098;-55
2023/12/25 04:36:29;;;;;;;1.52;0.50;;;12.00;99.90;;;;;;5035801;28;20032;-53
2023/12/25 04:38:54;;;;;;;0.95;0.60;;;12.00;99.90;;;;;;5035485;28;20048;-56
2023/12/25 04:41:24;;;;;;;0.73;0.45;;;12.00;99.90;;;;;;5035898;28;20036;-56
2023/12/25 04:43:51;;;;;;;1.30;0.60;;;12.00;99.90;;;;;;5035429;28;20116;-56
2023/12/25 04:46:17;;;;;;;1.40;0.70;;;12.00;99.90;;;;;;5035427;28;20119;-55
2023/12/25 04:48:43;;;;;;;1.10;0.43;;;12.00;99.90;;;;;;5035689;28;20028;-55
2023/12/25 04:51:09;;;;;;;1.58;0.60;;;12.00;99.90;;;;;;5035649;28;20024;-56
2023/12/25 04:53:36;;;;;;;0.80;0.40;;;12.00;99.90;;;;;;5035520;28;20076;-55
2023/12/25 04:56:05;;;;;;;0.52;0.35;;;12.00;99.90;;;;;;5035450;28;20028;-56
2023/12/25 04:58:30;;;;;;;2.15;0.60;;;11.90;99.90;;;;;;5053044;28;20036;-56
2023/12/25 05:00:56;;;;;;;1.95;0.52;;;11.90;99.90;;;;;;5035263;28;20444;-56
2023/12/25 05:03:22;;;;;;;1.70;0.47;;;11.90;99.90;;;;;;5053136;28;20107;-56
2023/12/25 05:05:48;;;;;;;1.08;0.50;;;11.80;99.90;;;;;;5035185;28;20478;-55
2023/12/25 05:08:15;;;;;;;0.43;0.43;;;11.80;99.90;;;;;;5035037;28;20029;-54
2023/12/25 05:10:41;;;;;;;0.77;0.40;;;11.80;99.90;;;;;;5035176;28;20029;-55
2023/12/25 05:13:07;;;;;;;0.52;0.43;;;11.80;99.90;;;;;;5052937;28;20351;-56
2023/12/25 05:15:33;;;;;;;0.70;0.45;;;11.80;99.90;;;;;;5053167;28;20036;-55
2023/12/25 05:17:58;;;;;;;2.38;0.40;;;11.70;99.90;;;;;;5034764;28;20029;-52
2023/12/25 05:20:24;;;;;;;0.45;0.40;;;11.70;99.90;;;;;;5035520;28;20429;-53
2023/12/25 05:22:50;;;;;;;0.93;0.50;;;11.70;99.90;;;;;;5052932;28;20025;-56
2023/12/25 05:25:15;;;;;;;0.50;0.40;;;11.70;99.90;;;;;;5052600;28;20124;-55
2023/12/25 05:27:41;;;;;;;0.45;0.30;;;11.60;99.90;;;;;;5052467;28;20078;-54
2023/12/25 05:30:08;;;;;;;0.38;0.32;;;11.60;99.90;;;;;;5052630;28;20025;-51
2023/12/25 05:32:35;;;;;;;0.38;0.20;;;11.60;99.90;;;;;;5052524;28;20478;-55
2023/12/25 05:35:01;;;;;;;0.57;0.28;;;11.70;99.90;;;;;;5052628;28;20043;-54
2023/12/25 05:37:26;;;;;;;0.20;0.15;;;11.70;99.90;;;;;;5052631;28;20033;-56
2023/12/25 05:39:52;;;;;;;0.30;0.20;;;11.70;99.90;;;;;;5052427;28;20040;-56
2023/12/25 05:42:18;;;;;;;0.20;0.20;;;11.70;99.90;;;;;;5052303;28;20033;-57
2023/12/25 05:44:44;;;;;;;0.30;0.22;;;11.70;99.90;;;;;;5052447;28;20082;-55
2023/12/25 05:47:10;;;;;;;0.33;0.30;;;11.70;99.90;;;;;;5052382;28;20028;-55
2023/12/25 05:49:35;;;;;;;0.55;0.10;;;11.70;99.90;;;;;;5052030;28;20021;-56
2023/12/25 05:52:01;;;;;;;0.98;0.08;;;11.70;99.90;;;;;;5052280;28;20081;-55
2023/12/25 05:54:26;;;;;;;0.60;0.20;;;11.60;99.90;;;;;;5052735;28;20037;-55
2023/12/25 05:56:52;;;;;;;0.20;0.10;;;11.60;99.90;;;;;;5052879;28;20394;-54
2023/12/25 05:59:18;;;;;;;0.47;0.20;;;11.60;99.90;;;;;;5051375;28;20060;-55
2023/12/25 06:01:43;;;;;;;0.10;0.10;;;11.60;99.90;;;;;;5052151;28;20243;-56
2023/12/25 06:04:09;;;;;;;0.32;0.20;;;11.60;99.90;;;;;;5051996;28;20033;-57
2023/12/25 06:06:34;;;;;;;0.55;0.20;;;11.60;99.90;;;;;;5052519;28;20028;-56
2023/12/25 06:09:00;;;;;;;0.15;0.15;;;11.60;99.90;;;;;;5052038;28;20466;-55
2023/12/25 06:11:25;;;;;;;0.65;0.15;;;11.60;99.90;;;;;;5052026;28;20025;-56
2023/12/25 06:13:51;;;;;;;0.10;0.10;;;11.60;99.90;;;;;;5052014;28;20394;-57
2023/12/25 06:16:17;;;;;;;0.65;0.28;;;11.60;99.90;;;;;;5051920;28;20035;-52
2023/12/25 06:18:43;;;;;;;0.40;0.17;;;11.60;99.90;;;;;;5051705;28;20024;-56
2023/12/25 06:21:08;;;;;;;0.20;0.20;;;11.60;99.90;;;;;;5033966;28;20031;-55
2023/12/25 06:23:35;;;;;;;0.13;0.10;;;11.60;99.90;;;;;;5051812;28;20033;-56
2023/12/25 06:26:00;;;;;;;0.10;0.10;;;11.60;99.90;;;;;;5051774;28;20025;-54
2023/12/25 06:28:26;;;;;;;0.10;0.10;;;11.50;99.90;;;;;;5051654;28;20094;-51
2023/12/25 06:30:52;;;;;;;0.47;0.30;;;11.50;99.90;;;;;;5051728;28;20036;-52
2023/12/25 06:33:19;;;;;;;0.22;0.20;;;11.60;99.90;;;;;;5051804;28;20029;-56
2023/12/25 06:35:45;;;;;;;0.20;0.20;;;11.60;99.90;;;;;;5051729;28;20017;-54
2023/12/25 06:38:12;;;;;;;0.20;0.10;;;11.60;99.90;;;;;;5033848;28;20039;-55
2023/12/25 06:40:38;;;;;;;0.20;0.20;;;11.60;99.90;;;;;;5051861;28;20057;-56
2023/12/25 06:43:04;;;;;;;0.25;0.10;;;11.60;99.90;;;;;;5051520;28;20142;-51
2023/12/25 06:45:29;;;;;;;0.35;0.13;;;11.60;99.90;;;;;;5051833;28;20078;-56
2023/12/25 06:47:55;;;;;;;0.67;0.30;;;11.60;99.90;;;;;;5051656;28;20455;-52
2023/12/25 06:50:21;;;;;;;0.90;0.20;;;11.60;99.90;;;;;;5051466;28;20063;-56
2023/12/25 06:52:46;;;;;;;1.33;0.50;;;11.60;99.90;;;;;;5051632;28;20052;-54
2023/12/25 06:55:12;;;;;;;0.40;0.30;;;11.70;99.90;;;;;;5051731;28;20029;-55
2023/12/25 06:57:38;;;;;;;1.90;0.30;;;11.70;99.90;;;;;;5033583;28;20504;-54
2023/12/25 07:00:05;;;;;;;0.65;0.30;;;11.60;99.90;;;;;;5052160;28;20036;-54
2023/12/25 07:02:31;;;;;;;0.60;0.30;;;11.70;99.90;;;;;;5051957;28;20088;-54
2023/12/25 07:04:56;;;;;;;0.75;0.32;;;11.70;99.90;;;;;;5051889;28;20033;-54
2023/12/25 07:07:25;;;;;;;0.57;0.20;;;11.70;99.90;;;;;;5051932;28;20029;-55
2023/12/25 07:09:51;;;;;;;1.38;0.52;;;11.70;99.90;;;;;;5054195;28;20041;-52
2023/12/25 07:12:17;;;;;;;0.43;0.30;;;11.80;99.90;;;;;;5056110;28;20121;-55
2023/12/25 07:14:45;;;;;;;0.60;0.20;;;11.80;99.90;;;;;;5056654;28;20068;-55
2023/12/25 07:17:10;;;;;;;0.32;0.30;;;11.80;99.90;;;;;;5056443;28;20037;-55
2023/12/25 07:19:36;;;;;;;0.80;0.40;;;11.80;99.90;;;;;;5056571;28;20178;-55
2023/12/25 07:22:02;;;;;;;0.47;0.38;;;11.80;99.90;;;;;;5056672;28;20123;-55
2023/12/25 07:24:28;;;;;;;0.75;0.32;;;11.80;99.90;;;;;;5056314;28;20045;-54
2023/12/25 07:26:53;;;;;;;0.63;0.20;;;11.80;99.90;;;;;;5055363;28;20115;-55
2023/12/25 07:29:20;;;;;;;0.30;0.25;;;11.80;99.90;;;;;;5054635;28;20033;-55
2023/12/25 07:31:45;;;;;;;1.02;0.40;;;11.80;99.90;;;;;;5054718;28;20037;-56
2023/12/25 07:34:11;;;;;;;0.32;0.30;;;11.90;99.90;;;;;;5055027;28;20044;-57
2023/12/25 07:36:37;;;;;;;0.63;0.40;;;11.90;99.90;;;;;;5054843;28;20037;-56
2023/12/25 07:39:05;;;;;;;1.20;0.40;;;11.90;99.90;;;;;;5054323;28;20075;-56
2023/12/25 07:41:31;;;;;;;2.15;0.60;;;11.90;99.90;;;;;;5036765;28;20032;-56
2023/12/25 07:44:00;;;;;;;3.33;1.25;;;11.90;99.90;;;;;;5054510;28;20037;-56
2023/12/25 07:46:26;;;;;;;;;;;11.90;99.90;;;;;;5055248;28;20108;-56
2023/12/25 07:48:51;;;;;;;2.10;0.80;;;11.90;99.90;;;;;;5054399;28;19997;-56
2023/12/25 07:51:17;;;;;;;7.32;3.50;;;11.90;99.90;;;;;;5054394;28;20021;-56
2023/12/25 07:53:42;;;;;;;0.70;0.40;;;11.90;99.90;;;;;;5054422;28;20029;-56
2023/12/25 07:56:08;;;;;;;0.85;0.38;;;11.90;99.90;;;;;;5054460;28;20044;-56
2023/12/25 07:58:35;;;;;;;0.40;0.40;;;11.90;99.90;;;;;;5054226;28;20033;-56
2023/12/25 08:01:01;;;;;;;1.08;0.20;;;11.90;99.90;;;;;;5054184;28;20033;-53
2023/12/25 08:03:27;;;;;;;0.35;0.30;;;11.90;99.90;;;;;;5054269;28;20075;-55
2023/12/25 08:05:53;;;;;;;1.95;0.35;;;11.90;99.90;;;;;;5054166;28;20175;-54
2023/12/25 08:08:18;;;;;;;0.45;0.25;;;12.00;99.90;;;;;;5054076;28;20033;-55
2023/12/25 08:10:44;;;;;;;0.30;0.20;;;11.90;99.90;;;;;;5054003;28;20379;-55
2023/12/25 08:13:10;;;;;;;0.35;0.20;;;11.90;99.90;;;;;;5054153;28;20037;-56
2023/12/25 08:15:36;;;;;;;1.23;0.32;;;11.90;99.90;;;;;;5036314;28;20021;-56
2023/12/25 08:18:01;;;;;;;1.25;0.32;;;11.90;99.90;;;;;;5053916;28;20033;-56
2023/12/25 08:20:27;;;;;;;1.13;0.40;;;12.00;99.90;;;;;;5053411;28;20029;-57
2023/12/25 08:22:53;;;;;;;0.40;0.30;;;12.00;99.90;;;;;;5053670;28;20067;-56
2023/12/25 08:25:18;;;;;;;0.30;0.25;;;12.00;99.90;;;;;;5053925;28;20028;-56
2023/12/25 08:27:44;;;;;;;0.52;0.30;;;12.00;99.90;;;;;;5053871;28;20148;-57
2023/12/25 08:30:11;;;;;;;0.70;0.40;;;12.00;99.90;;;;;;5053731;28;20028;-54
2023/12/25 08:32:37;;;;;;;0.60;0.30;;;11.90;99.90;;;;;;5053770;28;20056;-55
2023/12/25 08:35:03;;;;;;;0.45;0.40;;;12.00;99.90;;;;;;5053721;28;20061;-55
2023/12/25 08:37:29;;;;;;;1.00;0.32;;;11.90;99.90;;;;;;5053587;28;20033;-56
2023/12/25 08:39:55;;;;;;;2.55;0.68;;;11.90;99.90;;;;;;5036509;28;20029;-56
2023/12/25 08:42:20;;;;;;;0.47;0.40;;;12.00;99.90;;;;;;5053526;28;20120;-52
2023/12/25 08:44:47;;;;;;;0.47;0.32;;;11.90;99.90;;;;;;5053476;28;20065;-56
2023/12/25 08:47:14;;;;;;;0.38;0.20;;;11.90;99.90;;;;;;5053573;28;20039;-56
2023/12/25 08:49:40;;;;;;;0.35;0.20;;;11.80;99.90;;;;;;5053083;28;20025;-55
2023/12/25 08:52:06;;;;;;;0.25;0.20;;;11.60;99.90;;;;;;5053244;28;20452;-56
2023/12/25 08:54:31;;;;;;;0.20;0.10;;;11.40;99.90;;;;;;5053284;28;20113;-51
2023/12/25 08:57:00;;;;;;;0.52;0.20;;;11.20;99.90;;;;;;5053396;28;20385;-55
2023/12/25 08:59:25;;;;;;;0.97;0.30;;;11.00;99.90;;;;;;5053047;28;20029;-56
2023/12/25 09:01:51;;;;;;;0.50;0.25;;;10.90;99.90;;;;;;5053437;28;20113;-56
2023/12/25 09:04:17;;;;;;;0.83;0.37;;;10.70;99.90;;;;;;5053086;28;20032;-57
2023/12/25 09:06:42;;;;;;;0.57;0.20;;;10.60;99.90;;;;;;5053238;28;20025;-56
2023/12/25 09:09:11;;;;;;;0.30;0.20;;;10.60;99.90;;;;;;5052918;28;20490;-56
2023/12/25 09:11:37;;;;;;;0.32;0.28;;;10.50;99.90;;;;;;5035143;28;20108;-56
2023/12/25 09:14:03;;;;;;;0.67;0.27;;;10.50;99.90;;;;;;5018884;28;20551;-57
2023/12/25 09:16:29;;;;;;;0.80;0.60;;;10.40;99.90;;;;;;5053000;28;20432;-56
2023/12/25 09:18:55;;;;;;;0.70;0.30;;;10.40;99.90;;;;;;5052616;28;20033;-57
2023/12/25 09:21:21;;;;;;;0.20;0.20;;;10.30;99.90;;;;;;5052839;28;20050;-57
2023/12/25 09:23:47;;;;;;;0.73;0.40;;;10.40;99.90;;;;;;5052986;28;20033;-57
2023/12/25 09:26:20;;;;;;;0.87;0.50;;;10.30;99.90;;;;;;5052699;28;20234;-57
2023/12/25 09:28:46;;;;;;;2.30;0.60;;;10.30;99.90;;;;;;5052371;28;20032;-57
2023/12/25 09:31:13;;;;;;;1.42;0.50;;;10.30;99.90;;;;;;5052608;28;20394;-56
2023/12/25 09:33:39;;;;;;;1.63;0.40;;;10.30;99.90;;;;;;5051812;28;20444;-56
2023/12/25 09:36:08;;;;;;;1.33;0.40;;;10.40;99.90;;;;;;5053502;28;20058;-57
2023/12/25 09:38:34;;;;;;;1.35;0.50;;;10.40;99.90;;;;;;5052391;28;20040;-56
2023/12/25 09:41:00;;;;;;;2.90;0.70;;;10.30;99.90;;;;;;5052496;28;20033;-56
2023/12/25 09:43:27;;;;;;;1.60;0.63;;;10.30;99.90;;;;;;5052429;28;20028;-55
2023/12/25 09:45:53;;;;;;;0.90;0.50;;;10.30;99.90;;;;;;5052443;28;20100;-52
2023/12/25 09:48:19;;;;;;;1.93;0.50;;;10.30;99.90;;;;;;5052209;28;20040;-56
2023/12/25 09:50:45;;;;;;;0.70;0.40;;;10.30;99.90;;;;;;5052255;28;20112;-56
2023/12/25 09:53:11;;;;;;;1.07;0.70;;;10.20;99.90;;;;;;5052395;28;20029;-56
2023/12/25 09:55:36;;;;;;;2.73;0.53;;;10.20;99.90;;;;;;5052156;28;20064;-57
2023/12/25 09:58:10;;;;;;;1.33;0.70;;;10.20;99.90;;;;;;5052058;28;20029;-57
2023/12/25 10:00:36;;;;;;;1.43;0.70;;;10.20;99.90;;;;;;5052171;28;20025;-56
2023/12/25 10:03:03;;;;;;;0.77;0.43;;;10.20;99.90;;;;;;5052234;28;20032;-57
2023/12/25 10:05:29;;;;;;;1.03;0.60;;;10.20;99.90;;;;;;5052253;28;20113;-55
2023/12/25 10:07:55;;;;;;;0.80;0.60;;;10.20;99.90;;;;;;5051925;28;20538;-55
2023/12/25 10:10:31;;;;;;;0.77;0.60;;;10.20;99.90;;;;;;5052288;28;20033;-56
2023/12/25 10:12:59;;;;;;;1.17;0.80;;;10.20;99.90;;;;;;5051918;28;20039;-55
2023/12/25 10:15:25;;;;;;;1.30;0.77;;;10.20;99.90;;;;;;5052124;28;20521;-56
2023/12/25 10:18:05;;;;;;;1.03;0.70;;;10.20;99.90;;;;;;5053624;28;20078;-57
2023/12/25 10:20:30;;;;;;;1.50;0.90;;;10.30;99.90;;;;;;5054009;28;20068;-56
2023/12/25 10:22:57;;;;;;;1.43;0.87;;;10.30;99.90;;;;;;5051845;28;20061;-56
2023/12/25 10:25:29;;;;;;;1.60;0.93;;;10.40;99.90;;;;;;5051689;28;20120;-56
2023/12/25 10:27:54;;;;;;;1.30;0.90;;;10.40;99.90;;;;;;5051425;28;20109;-56
2023/12/25 10:30:26;;;;;;;1.53;1.00;;;10.40;99.90;;;;;;5051737;28;20119;-56
2023/12/25 10:33:13;;;;;;;1.80;1.03;;;10.50;99.90;;;;;;5051734;28;20033;-56
2023/12/25 10:35:39;;;;;;;1.93;1.17;;;10.50;99.90;;;;;;5051648;28;20047;-55
2023/12/25 10:38:06;;;;;;;8.00;3.50;;;10.50;99.90;;;;;;5051436;28;20112;-56
2023/12/25 10:40:32;;;;;;;2.57;1.33;;;10.60;99.90;;;;;;5051493;28;20127;-56
2023/12/25 10:42:58;;;;;;;4.23;2.17;;;10.60;99.90;;;;;;5051454;28;20495;-56
2023/12/25 10:45:28;;;;;;;3.47;1.60;;;10.60;99.90;;;;;;5054920;28;20037;-56
2023/12/25 10:47:56;;;;;;;2.50;1.33;;;10.60;99.90;;;;;;5055649;28;20041;-56
2023/12/25 10:50:26;;;;;;;2.45;1.30;;;10.70;99.90;;;;;;5055688;28;20086;-56
2023/12/25 10:52:53;;;;;;;2.47;1.20;;;10.60;99.90;;;;;;5055575;28;20107;-56
2023/12/25 10:55:43;;;;;;;2.55;1.55;;;10.70;99.90;;;;;;5055665;28;20028;-57
2023/12/25 10:58:11;;;;;;;1.95;1.33;;;10.60;99.90;;;;;;5055497;28;20495;-53
2023/12/25 11:00:54;;;;;;;2.15;0.70;;;10.70;99.90;;;;;;5055691;28;20075;-56
2023/12/25 11:03:21;;;;;;;0.80;0.60;;;10.90;99.90;;;;;;5055612;28;20128;-56
2023/12/25 11:05:47;;;;;;;3.20;0.93;;;10.90;99.90;;;;;;5055677;28;20056;-56
2023/12/25 11:08:13;;;;;;;1.47;0.70;;;10.90;99.90;;;;;;5055328;28;20036;-56
2023/12/25 11:10:39;;;;;;;2.20;1.00;;;11.10;99.90;;;;;;5037662;28;20037;-56
2023/12/25 11:13:06;;;;;;;1.80;0.80;;;11.20;99.90;;;;;;5055369;28;20029;-56
2023/12/25 11:15:32;;;;;;;1.85;0.88;;;11.20;99.90;;;;;;5055353;28;20040;-55
2023/12/25 11:17:59;;;;;;;1.40;0.77;;;11.30;99.90;;;;;;5055093;28;20032;-56
2023/12/25 11:20:25;;;;;;;3.83;0.88;;;11.30;99.90;;;;;;5055157;28;20068;-54
2023/12/25 11:22:55;;;;;;;1.40;0.60;;;11.30;99.90;;;;;;5055096;28;20137;-55
2023/12/25 11:25:21;;;;;;;2.08;0.95;;;11.40;99.90;;;;;;5055167;28;20040;-55
2023/12/25 11:27:51;;;;;;;1.55;0.88;;;11.30;99.90;;;;;;5054879;28;20107;-53
2023/12/25 11:30:18;;;;;;;0.95;0.70;;;11.40;99.90;;;;;;5054929;28;20113;-57
2023/12/25 11:32:48;;;;;;;1.10;0.80;;;11.50;99.90;;;;;;5054832;28;20041;-56
2023/12/25 11:35:15;;;;;;;1.10;0.70;;;11.50;99.90;;;;;;5054893;28;20033;-56
2023/12/25 11:37:41;;;;;;;5.53;2.10;;;11.50;99.90;;;;;;5054692;28;20033;-56
2023/12/25 11:40:08;;;;;;;6.38;3.95;;;11.50;99.90;;;;;;5054689;28;20033;-56
2023/12/25 11:42:37;;;;;;;4.18;2.00;;;11.60;99.90;;;;;;5054585;28;20508;-56
2023/12/25 11:45:08;;;;;;;1.38;0.90;;;11.60;99.90;;;;;;5054724;28;20037;-55
2023/12/25 11:47:45;;;;;;;1.50;0.80;;;11.50;99.90;;;;;;5054628;28;20538;-55
2023/12/25 11:50:13;;;;;;;2.97;1.00;;;11.60;99.90;;;;;;5054626;28;20072;-55
2023/12/25 11:52:55;;;;;;;1.52;0.80;;;11.60;99.90;;;;;;5054482;28;20043;-54
2023/12/25 11:55:25;;;;;;;1.70;0.73;;;11.60;99.90;;;;;;5053600;28;20477;-55
2023/12/25 11:57:51;;;;;;;1.02;0.60;;;11.50;99.90;;;;;;5036270;28;20086;-56
2023/12/25 12:00:26;;;;;;;0.85;0.50;;;11.40;99.90;;;;;;5036444;28;20033;-55
2023/12/25 12:02:52;;;;;;;0.68;0.52;;;11.20;99.90;;;;;;5054327;28;20041;-57
2023/12/25 12:05:19;;;;;;;0.57;0.40;;;11.00;99.90;;;;;;5054269;28;20033;-55
2023/12/25 12:07:45;;;;;;;0.50;0.33;;;10.90;99.90;;;;;;5053928;28;20112;-56
2023/12/25 12:10:12;;;;;;;1.13;0.68;;;10.80;99.90;;;;;;5036160;28;20035;-57
2023/12/25 12:12:38;;;;;;;2.07;0.50;;;10.70;99.90;;;;;;5036386;28;20032;-57
2023/12/25 12:15:05;;;;;;;2.55;0.65;;;10.60;99.90;;;;;;5036452;28;20405;-55
2023/12/25 12:17:32;;;;;;;0.88;0.60;;;10.60;99.90;;;;;;5053986;28;20044;-55
2023/12/25 12:19:58;;;;;;;1.87;0.90;;;10.60;99.90;;;;;;5053903;28;20097;-55
2023/12/25 12:22:25;;;;;;;2.00;0.90;;;10.50;99.90;;;;;;5036089;28;20036;-51
2023/12/25 12:24:51;;;;;;;1.93;0.80;;;10.60;99.90;;;;;;5053855;28;20490;-55
2023/12/25 12:27:19;;;;;;;2.28;0.80;;;10.60;99.90;;;;;;5053840;28;20109;-54
2023/12/25 12:29:48;;;;;;;2.60;0.70;;;10.60;99.90;;;;;;5053510;28;20029;-56
2023/12/25 12:32:13;;;;;;;6.77;0.73;;;10.50;99.90;;;;;;5053686;28;20033;-55
2023/12/25 12:34:39;;;;;;;1.00;0.50;;;10.50;99.90;;;;;;5053825;28;20401;-56
2023/12/25 12:37:05;;;;;;;1.65;0.52;;;10.50;99.90;;;;;;5053695;28;20104;-54
2023/12/25 12:39:31;;;;;;;1.33;0.73;;;10.40;99.90;;;;;;5053385;28;20040;-55
2023/12/25 12:41:58;;;;;;;4.10;1.20;;;10.50;99.90;;;;;;5053478;28;20134;-54
2023/12/25 12:44:24;;;;;;;4.50;1.57;;;10.50;99.90;;;;;;5035621;28;20122;-58